createdAt,value
2018-10-02T00:01:43.980Z,56.20
2018-10-02T00:04:12.710Z,56.00
2018-10-02T00:06:41.514Z,56.70
2018-10-02T00:09:11.844Z,57.00
2018-10-02T00:11:45.796Z,57.10
2018-10-02T00:14:20.056Z,58.20
2018-10-02T00:16:48.833Z,57.30
2018-10-02T00:19:17.580Z,57.60
2018-10-02T00:21:46.312Z,57.50
2018-10-02T00:24:15.060Z,57.80
2018-10-02T00:26:43.815Z,57.50
2018-10-02T00:29:12.907Z,57.60
2018-10-02T00:31:41.680Z,57.60
2018-10-02T00:34:10.621Z,57.60
2018-10-02T00:36:39.580Z,57.50
2018-10-02T00:39:08.324Z,57.70
2018-10-02T00:41:37.160Z,58.00
2018-10-02T00:44:06.624Z,57.90
2018-10-02T00:46:35.363Z,58.00
2018-10-02T00:49:04.102Z,58.00
2018-10-02T00:51:32.823Z,57.90
2018-10-02T00:54:01.553Z,57.60
2018-10-02T00:56:30.277Z,57.70
2018-10-02T00:58:59.016Z,57.80
2018-10-02T01:01:27.751Z,58.00
2018-10-02T01:03:56.500Z,58.30
2018-10-02T01:06:25.237Z,58.10
2018-10-02T01:08:53.979Z,58.00
2018-10-02T01:11:22.724Z,58.10
2018-10-02T01:13:51.468Z,58.10
2018-10-02T01:16:20.204Z,58.30
2018-10-02T01:18:48.953Z,58.10
2018-10-02T01:21:17.717Z,58.30
2018-10-02T01:23:46.452Z,58.80
2018-10-02T01:26:15.236Z,59.50
2018-10-02T01:28:43.960Z,59.20
2018-10-02T01:31:12.756Z,59.50
2018-10-02T01:33:41.500Z,59.20
2018-10-02T01:36:10.612Z,58.70
2018-10-02T01:38:39.496Z,58.60
2018-10-02T01:41:08.252Z,58.60
2018-10-02T01:43:37.060Z,59.20
2018-10-02T01:46:05.772Z,59.20
2018-10-02T01:48:34.515Z,59.50
2018-10-02T01:51:03.252Z,59.60
2018-10-02T01:53:31.996Z,59.80
2018-10-02T01:56:00.979Z,59.30
2018-10-02T01:58:29.748Z,59.30
2018-10-02T02:00:58.500Z,59.30
2018-10-02T02:03:27.244Z,58.80
2018-10-02T02:05:55.983Z,58.90
2018-10-02T02:08:24.860Z,59.30
2018-10-02T02:10:53.608Z,59.70
2018-10-02T02:13:22.360Z,59.60
2018-10-02T02:15:51.100Z,59.10
2018-10-02T02:18:19.831Z,59.60
2018-10-02T02:20:48.556Z,58.50
2018-10-02T02:23:17.288Z,59.40
2018-10-02T02:25:46.063Z,59.40
2018-10-02T02:28:14.819Z,59.90
2018-10-02T02:30:43.548Z,59.80
2018-10-02T02:33:12.320Z,59.10
2018-10-02T02:35:41.040Z,59.30
2018-10-02T02:38:09.772Z,58.70
2018-10-02T02:40:38.500Z,58.70
2018-10-02T02:43:07.228Z,59.20
2018-10-02T02:45:35.959Z,59.50
2018-10-02T02:48:10.208Z,59.20
2018-10-02T02:50:45.940Z,59.80
2018-10-02T02:53:16.692Z,59.80
2018-10-02T02:55:45.972Z,59.80
2018-10-02T02:58:14.945Z,59.30
2018-10-02T03:00:43.639Z,59.40
2018-10-02T03:03:12.387Z,59.30
2018-10-02T03:05:41.108Z,59.80
2018-10-02T03:08:10.016Z,59.40
2018-10-02T03:10:38.763Z,60.10
2018-10-02T03:13:07.465Z,60.10
2018-10-02T03:15:36.231Z,59.60
2018-10-02T03:18:04.988Z,59.90
2018-10-02T03:20:33.728Z,60.20
2018-10-02T03:23:02.459Z,60.60
2018-10-02T03:25:31.196Z,60.90
2018-10-02T03:28:00.047Z,61.50
2018-10-02T03:30:28.792Z,61.40
2018-10-02T03:32:57.527Z,60.80
2018-10-02T03:35:26.267Z,61.10
2018-10-02T03:37:55.098Z,61.40
2018-10-02T03:40:23.759Z,61.50
2018-10-02T03:42:52.533Z,60.60
2018-10-02T03:45:21.268Z,61.00
2018-10-02T03:47:50.016Z,61.50
2018-10-02T03:50:18.732Z,61.80
2018-10-02T03:52:47.460Z,61.90
2018-10-02T03:55:16.204Z,61.50
2018-10-02T03:57:44.935Z,61.20
2018-10-02T04:00:13.678Z,61.20
2018-10-02T04:02:42.408Z,61.40
2018-10-02T04:05:11.163Z,61.60
2018-10-02T04:07:39.881Z,60.20
2018-10-02T04:10:08.603Z,61.40
2018-10-02T04:12:37.336Z,62.00
2018-10-02T04:15:06.108Z,62.60
2018-10-02T04:17:35.304Z,62.10
2018-10-02T04:20:04.044Z,62.00
2018-10-02T04:22:32.840Z,61.90
2018-10-02T04:25:01.584Z,61.80
2018-10-02T04:27:30.609Z,61.60
2018-10-02T04:29:59.363Z,62.30
2018-10-02T04:32:28.096Z,62.90
2018-10-02T04:34:56.939Z,62.90
2018-10-02T04:37:25.680Z,63.70
2018-10-02T04:39:54.404Z,62.50
2018-10-02T04:42:23.224Z,63.10
2018-10-02T04:44:51.943Z,62.80
2018-10-02T04:47:20.680Z,63.30
2018-10-02T04:49:49.403Z,63.90
2018-10-02T04:52:18.173Z,63.30
2018-10-02T04:54:46.909Z,62.70
2018-10-02T04:57:15.675Z,63.80
2018-10-02T04:59:44.388Z,63.10
2018-10-02T05:02:13.191Z,64.00
2018-10-02T05:04:41.860Z,63.00
2018-10-02T05:07:10.571Z,63.20
2018-10-02T05:09:39.303Z,64.10
2018-10-02T05:12:08.024Z,64.20
2018-10-02T05:14:36.793Z,65.10
2018-10-02T05:17:05.555Z,63.80
2018-10-02T05:19:34.317Z,63.10
2018-10-02T05:22:03.068Z,62.60
2018-10-02T05:24:31.806Z,62.40
2018-10-02T05:27:00.556Z,62.50
2018-10-02T05:29:29.255Z,63.40
2018-10-02T05:31:57.987Z,63.40
2018-10-02T05:34:26.724Z,62.80
2018-10-02T05:36:55.483Z,63.50
2018-10-02T05:39:24.261Z,63.20
2018-10-02T05:41:53.156Z,62.90
2018-10-02T05:44:21.868Z,61.80
2018-10-02T05:46:50.810Z,62.40
2018-10-02T05:49:19.916Z,62.80
2018-10-02T05:51:48.748Z,62.70
2018-10-02T05:54:17.611Z,62.40
2018-10-02T05:56:46.859Z,63.60
2018-10-02T05:59:15.596Z,64.60
2018-10-02T06:01:44.374Z,65.10
2018-10-02T06:04:13.076Z,64.70
2018-10-02T06:06:41.988Z,64.20
2018-10-02T06:09:12.028Z,63.60
2018-10-02T06:11:40.923Z,63.50
2018-10-02T06:14:10.516Z,64.10
2018-10-02T06:16:39.373Z,64.40
2018-10-02T06:19:08.103Z,64.30
2018-10-02T06:21:36.866Z,63.20
2018-10-02T06:24:05.617Z,64.40
2018-10-02T06:26:34.378Z,64.00
2018-10-02T06:29:03.300Z,65.40
2018-10-02T06:31:32.052Z,66.40
2018-10-02T06:34:00.784Z,65.00
2018-10-02T06:36:29.656Z,64.90
2018-10-02T06:39:01.491Z,64.10
2018-10-02T06:41:31.764Z,64.80
2018-10-02T06:44:00.550Z,65.50
2018-10-02T06:46:29.232Z,64.80
2018-10-02T06:48:57.982Z,63.10
2018-10-02T06:51:26.753Z,65.50
2018-10-02T06:53:58.069Z,62.50
2018-10-02T06:56:26.842Z,64.90
2018-10-02T06:58:55.556Z,65.40
2018-10-02T07:01:24.320Z,66.40
2018-10-02T07:03:53.049Z,67.90
2018-10-02T07:06:21.788Z,68.30
2018-10-02T07:08:50.551Z,67.20
2018-10-02T07:11:19.255Z,66.00
2018-10-02T07:13:47.984Z,64.80
2018-10-02T07:16:16.728Z,64.90
2018-10-02T07:18:45.460Z,63.90
2018-10-02T07:21:14.193Z,64.80
2018-10-02T07:23:42.920Z,64.20
2018-10-02T07:26:11.940Z,64.30
2018-10-02T07:28:40.668Z,64.30
2018-10-02T07:31:09.477Z,64.00
2018-10-02T07:33:38.144Z,64.10
2018-10-02T07:36:06.870Z,63.90
2018-10-02T07:38:35.620Z,63.60
2018-10-02T07:41:04.352Z,64.30
2018-10-02T07:43:33.091Z,63.60
2018-10-02T07:46:01.858Z,63.50
2018-10-02T07:48:30.644Z,63.10
2018-10-02T07:50:59.343Z,63.40
2018-10-02T07:53:28.077Z,63.50
2018-10-02T07:55:57.091Z,63.30
2018-10-02T07:58:25.988Z,64.10
2018-10-02T08:00:54.720Z,63.90
2018-10-02T08:03:23.664Z,64.10
2018-10-02T08:05:52.443Z,64.00
2018-10-02T08:08:21.186Z,74.80
2018-10-02T08:10:49.839Z,73.40
2018-10-02T08:13:18.588Z,73.50
2018-10-02T08:15:47.316Z,79.40
2018-10-02T08:18:16.082Z,85.80
2018-10-02T08:20:45.157Z,86.60
2018-10-02T08:23:13.812Z,80.90
2018-10-02T08:25:47.473Z,90.40
2018-10-02T08:28:17.384Z,90.20
2018-10-02T08:30:46.168Z,88.10
2018-10-02T08:33:14.912Z,84.00
2018-10-02T08:35:44.236Z,88.30
2018-10-02T08:38:12.887Z,87.20
2018-10-02T08:40:41.844Z,83.30
2018-10-02T08:43:10.642Z,84.70
2018-10-02T08:45:39.324Z,84.70
2018-10-02T08:48:08.064Z,79.40
2018-10-02T08:50:36.908Z,78.10
2018-10-02T08:53:05.598Z,82.90
2018-10-02T08:55:34.333Z,79.60
2018-10-02T08:58:03.097Z,77.60
2018-10-02T09:00:31.888Z,79.10
2018-10-02T09:03:00.639Z,78.70
2018-10-02T09:05:29.361Z,81.10
2018-10-02T09:07:58.919Z,77.60
2018-10-02T09:10:27.675Z,75.10
2018-10-02T09:12:57.205Z,76.50
2018-10-02T09:15:25.913Z,75.60
2018-10-02T09:17:54.652Z,73.90
2018-10-02T09:20:23.444Z,75.80
2018-10-02T09:22:52.281Z,76.90
2018-10-02T09:25:21.021Z,73.70
2018-10-02T09:27:49.804Z,77.20
2018-10-02T09:30:24.091Z,74.10
2018-10-02T09:32:58.212Z,75.50
2018-10-02T09:35:32.296Z,75.00
2018-10-02T09:38:06.286Z,74.50
2018-10-02T09:40:40.466Z,73.90
2018-10-02T09:43:14.611Z,72.70
2018-10-02T09:45:43.314Z,72.90
2018-10-02T09:48:13.760Z,71.90
2018-10-02T09:50:42.528Z,74.30
2018-10-02T09:53:11.232Z,74.90
2018-10-02T09:55:39.976Z,77.80
2018-10-02T09:58:08.762Z,77.00
2018-10-02T10:00:43.042Z,75.30
2018-10-02T10:03:11.684Z,73.40
2018-10-02T10:05:40.581Z,72.50
2018-10-02T10:08:09.325Z,71.80
2018-10-02T10:10:38.235Z,69.70
2018-10-02T10:13:06.813Z,72.10
2018-10-02T10:15:35.561Z,72.40
2018-10-02T10:18:04.300Z,72.30
2018-10-02T10:20:33.056Z,73.10
2018-10-02T10:23:01.828Z,72.00
2018-10-02T10:25:30.553Z,71.50
2018-10-02T10:27:59.292Z,70.20
2018-10-02T10:30:28.029Z,71.20
2018-10-02T10:32:56.817Z,70.80
2018-10-02T10:35:25.564Z,71.60
2018-10-02T10:37:54.335Z,71.50
2018-10-02T10:40:23.075Z,70.20
2018-10-02T10:42:51.806Z,70.40
2018-10-02T10:45:20.532Z,71.40
2018-10-02T10:47:49.307Z,70.30
2018-10-02T10:50:17.972Z,71.40
2018-10-02T10:52:46.738Z,71.00
2018-10-02T10:55:24.157Z,70.90
2018-10-02T10:57:53.396Z,69.90
2018-10-02T11:00:22.452Z,71.50
2018-10-02T11:02:51.255Z,72.50
2018-10-02T11:05:19.944Z,71.70
2018-10-02T11:07:49.703Z,72.00
2018-10-02T11:10:19.241Z,71.60
2018-10-02T11:12:48.240Z,72.60
2018-10-02T11:15:17.982Z,71.60
2018-10-02T11:17:46.692Z,73.50
2018-10-02T11:20:18.080Z,74.30
2018-10-02T11:22:46.828Z,75.00
2018-10-02T11:25:15.645Z,75.50
2018-10-02T11:27:44.333Z,76.30
2018-10-02T11:30:13.081Z,75.90
2018-10-02T11:32:41.987Z,74.50
2018-10-02T11:35:10.684Z,75.50
2018-10-02T11:37:39.505Z,75.40
2018-10-02T11:40:08.229Z,74.40
2018-10-02T11:42:38.566Z,74.80
2018-10-02T11:45:07.628Z,74.10
2018-10-02T11:47:37.097Z,73.90
2018-10-02T11:50:05.861Z,74.00
2018-10-02T11:52:35.008Z,73.40
2018-10-02T11:55:03.806Z,74.20
2018-10-02T11:57:32.545Z,74.00
2018-10-02T12:00:01.250Z,74.90
2018-10-02T12:02:29.994Z,74.50
2018-10-02T12:04:58.731Z,74.90
2018-10-02T12:07:27.482Z,75.30
2018-10-02T12:09:56.224Z,75.90
2018-10-02T12:12:25.084Z,75.50
2018-10-02T12:14:53.863Z,75.90
2018-10-02T12:17:22.572Z,75.20
2018-10-02T12:19:51.677Z,75.10
2018-10-02T12:22:20.144Z,75.50
2018-10-02T12:24:49.552Z,76.70
2018-10-02T12:27:18.284Z,75.80
2018-10-02T12:29:46.991Z,76.50
2018-10-02T12:32:15.724Z,76.70
2018-10-02T12:34:44.456Z,76.50
2018-10-02T12:37:13.187Z,75.40
2018-10-02T12:39:41.954Z,75.20
2018-10-02T12:42:10.703Z,76.10
2018-10-02T12:44:39.440Z,76.80
2018-10-02T12:47:08.224Z,77.00
2018-10-02T12:49:36.936Z,77.00
2018-10-02T12:52:05.707Z,77.10
2018-10-02T12:54:34.440Z,76.80
2018-10-02T12:57:03.176Z,76.20
2018-10-02T12:59:31.892Z,75.70
2018-10-02T13:02:00.640Z,75.70
2018-10-02T13:04:29.408Z,76.50
2018-10-02T13:06:58.285Z,76.30
2018-10-02T13:09:27.009Z,76.30
2018-10-02T13:11:55.749Z,76.80
2018-10-02T13:14:24.467Z,76.70
2018-10-02T13:16:53.208Z,77.50
2018-10-02T13:19:21.948Z,78.10
2018-10-02T13:21:50.709Z,78.60
2018-10-02T13:24:19.440Z,78.00
2018-10-02T13:26:48.172Z,78.80
2018-10-02T13:29:16.904Z,78.50
2018-10-02T13:31:45.635Z,78.80
2018-10-02T13:34:14.720Z,78.40
2018-10-02T13:36:43.452Z,79.00
2018-10-02T13:39:12.180Z,78.80
2018-10-02T13:41:40.921Z,79.30
2018-10-02T13:44:09.656Z,78.90
2018-10-02T13:46:38.399Z,78.90
2018-10-02T13:49:07.145Z,78.30
2018-10-02T13:51:35.893Z,78.10
2018-10-02T13:54:05.501Z,78.00
2018-10-02T13:56:34.245Z,77.40
2018-10-02T13:59:03.124Z,77.70
2018-10-02T14:01:31.869Z,77.50
2018-10-02T14:04:00.624Z,77.30
2018-10-02T14:06:29.421Z,80.10
2018-10-02T14:08:58.150Z,81.10
2018-10-02T14:11:26.890Z,81.80
2018-10-02T14:13:55.622Z,80.30
2018-10-02T14:16:24.356Z,79.70
2018-10-02T14:18:53.720Z,79.00
2018-10-02T14:21:22.461Z,78.70
2018-10-02T14:23:51.200Z,78.10
2018-10-02T14:26:19.957Z,78.70
2018-10-02T14:28:48.695Z,77.90
2018-10-02T14:31:17.521Z,77.50
2018-10-02T14:33:46.244Z,77.20
2018-10-02T14:36:15.020Z,77.60
2018-10-02T14:38:43.750Z,79.30
2018-10-02T14:41:12.520Z,78.40
2018-10-02T14:43:41.260Z,80.10
2018-10-02T14:46:09.999Z,78.80
2018-10-02T14:48:39.267Z,78.80
2018-10-02T14:51:07.985Z,78.20
2018-10-02T14:53:36.737Z,77.50
2018-10-02T14:56:05.608Z,78.30
2018-10-02T14:58:34.465Z,79.20
2018-10-02T15:01:03.187Z,79.20
2018-10-02T15:03:31.940Z,79.40
2018-10-02T15:06:00.684Z,78.50
2018-10-02T15:08:29.419Z,78.70
2018-10-02T15:10:58.257Z,80.60
2018-10-02T15:13:26.979Z,82.80
2018-10-02T15:15:55.772Z,83.40
2018-10-02T15:18:24.509Z,83.10
2018-10-02T15:20:53.379Z,84.50
2018-10-02T15:23:22.120Z,84.50
2018-10-02T15:25:50.851Z,84.10
2018-10-02T15:28:19.776Z,84.10
2018-10-02T15:30:48.612Z,83.50
2018-10-02T15:33:17.357Z,82.80
2018-10-02T15:35:46.109Z,83.20
2018-10-02T15:38:14.865Z,82.70
2018-10-02T15:40:43.579Z,83.10
2018-10-02T15:43:12.340Z,82.30
2018-10-02T15:45:41.089Z,82.90
2018-10-02T15:48:09.832Z,83.20
2018-10-02T15:50:38.575Z,81.90
2018-10-02T15:53:07.312Z,82.70
2018-10-02T15:55:36.045Z,81.90
2018-10-02T15:58:04.826Z,81.20
2018-10-02T16:00:33.505Z,81.90
2018-10-02T16:03:02.244Z,81.80
2018-10-02T16:05:31.024Z,81.00
2018-10-02T16:07:59.767Z,80.60
2018-10-02T16:10:28.481Z,80.60
2018-10-02T16:12:57.413Z,80.70
2018-10-02T16:15:26.151Z,81.50
2018-10-02T16:17:55.022Z,80.20
2018-10-02T16:20:23.696Z,79.30
2018-10-02T16:22:52.759Z,78.70
2018-10-02T16:25:21.545Z,77.80
2018-10-02T16:27:50.404Z,77.50
2018-10-02T16:30:19.124Z,76.60
2018-10-02T16:32:47.915Z,76.50
2018-10-02T16:35:16.715Z,76.60
2018-10-02T16:37:45.804Z,76.90
2018-10-02T16:40:14.583Z,76.30
2018-10-02T16:42:43.334Z,76.50
2018-10-02T16:45:12.076Z,77.20
2018-10-02T16:47:40.827Z,77.40
2018-10-02T16:50:09.569Z,77.00
2018-10-02T16:52:38.325Z,77.10
2018-10-02T16:55:07.089Z,76.70
2018-10-02T16:57:35.861Z,77.60
2018-10-02T17:00:04.996Z,77.10
2018-10-02T17:02:33.746Z,76.00
2018-10-02T17:05:02.496Z,75.00
2018-10-02T17:07:31.284Z,74.50
2018-10-02T17:10:00.085Z,73.80
2018-10-02T17:12:28.855Z,73.10
2018-10-02T17:14:57.651Z,72.90
2018-10-02T17:17:26.428Z,73.10
2018-10-02T17:19:55.164Z,72.60
2018-10-02T17:22:23.953Z,72.60
2018-10-02T17:24:53.020Z,69.70
2018-10-02T17:27:21.752Z,72.90
2018-10-02T17:29:50.485Z,71.90
2018-10-02T17:32:19.402Z,72.10
2018-10-02T17:34:48.109Z,71.40
2018-10-02T17:37:16.897Z,71.40
2018-10-02T17:39:45.592Z,70.10
2018-10-02T17:42:14.312Z,70.70
2018-10-02T17:44:43.049Z,69.70
2018-10-02T17:47:12.024Z,70.10
2018-10-02T17:49:40.810Z,68.20
2018-10-02T17:52:09.880Z,69.20
2018-10-02T17:54:38.628Z,67.70
2018-10-02T17:57:07.361Z,66.50
2018-10-02T17:59:36.108Z,68.50
2018-10-02T18:02:04.869Z,68.60
2018-10-02T18:04:33.656Z,67.50
2018-10-02T18:07:02.425Z,68.70
2018-10-02T18:09:31.179Z,69.10
2018-10-02T18:12:00.152Z,67.80
2018-10-02T18:14:28.864Z,67.10
2018-10-02T18:16:57.618Z,68.00
2018-10-02T18:19:26.364Z,67.80
2018-10-02T18:21:55.104Z,66.50
2018-10-02T18:24:23.904Z,67.70
2018-10-02T18:26:52.648Z,65.80
2018-10-02T18:29:21.388Z,65.60
2018-10-02T18:31:50.144Z,66.90
2018-10-02T18:34:18.900Z,66.70
2018-10-02T18:36:47.656Z,66.40
2018-10-02T18:39:16.417Z,66.50
2018-10-02T18:41:45.200Z,66.40
2018-10-02T18:44:13.935Z,64.90
2018-10-02T18:46:42.677Z,65.70
2018-10-02T18:49:11.534Z,65.90
2018-10-02T18:51:40.238Z,66.80
2018-10-02T18:54:09.035Z,66.10
2018-10-02T18:56:37.987Z,66.20
2018-10-02T18:59:06.656Z,66.30
2018-10-02T19:01:35.384Z,66.40
2018-10-02T19:04:04.217Z,66.40
2018-10-02T19:06:32.967Z,66.10
2018-10-02T19:09:06.992Z,67.10
2018-10-02T19:11:41.099Z,66.80
2018-10-02T19:14:09.864Z,65.00
2018-10-02T19:16:38.579Z,65.30
2018-10-02T19:19:11.556Z,65.70
2018-10-02T19:21:40.313Z,65.40
2018-10-02T19:24:09.048Z,65.80
2018-10-02T19:26:37.790Z,65.50
2018-10-02T19:29:06.565Z,65.30
2018-10-02T19:31:40.770Z,64.90
2018-10-02T19:34:09.560Z,64.20
2018-10-02T19:36:38.344Z,63.30
2018-10-02T19:39:09.391Z,64.50
2018-10-02T19:41:38.286Z,62.40
2018-10-02T19:44:07.004Z,64.20
2018-10-02T19:46:40.321Z,64.60
2018-10-02T19:49:09.079Z,62.70
2018-10-02T19:51:43.198Z,63.60
2018-10-02T19:54:11.960Z,62.70
2018-10-02T19:56:40.712Z,63.80
2018-10-02T19:59:09.496Z,61.60
2018-10-02T20:01:38.268Z,63.60
2018-10-02T20:04:07.038Z,61.80
2018-10-02T20:06:35.760Z,64.00
2018-10-02T20:09:06.608Z,64.00
2018-10-02T20:11:35.352Z,64.00
2018-10-02T20:14:04.131Z,64.20
2018-10-02T20:16:33.036Z,62.90
2018-10-02T20:19:01.806Z,63.10
2018-10-02T20:21:30.649Z,63.70
2018-10-02T20:23:59.255Z,63.70
2018-10-02T20:26:28.317Z,63.90
2018-10-02T20:28:57.112Z,63.60
2018-10-02T20:31:25.895Z,63.70
2018-10-02T20:33:54.681Z,62.80
2018-10-02T20:36:23.416Z,62.50
2018-10-02T20:38:52.383Z,62.60
2018-10-02T20:41:21.096Z,61.30
2018-10-02T20:43:49.851Z,62.50
2018-10-02T20:46:18.657Z,62.30
2018-10-02T20:48:47.559Z,62.10
2018-10-02T20:51:16.453Z,61.80
2018-10-02T20:53:45.225Z,62.20
2018-10-02T20:56:13.960Z,62.40
2018-10-02T20:58:42.712Z,61.90
2018-10-02T21:01:11.472Z,61.60
2018-10-02T21:03:40.300Z,62.90
2018-10-02T21:06:09.109Z,62.80
2018-10-02T21:08:37.847Z,63.50
2018-10-02T21:11:06.784Z,63.80
2018-10-02T21:13:35.520Z,64.10
2018-10-02T21:16:04.280Z,64.00
2018-10-02T21:18:33.051Z,64.40
2018-10-02T21:21:01.856Z,64.10
2018-10-02T21:23:30.611Z,64.40
2018-10-02T21:25:59.407Z,64.50
2018-10-02T21:28:28.152Z,64.20
2018-10-02T21:30:56.886Z,64.40
2018-10-02T21:33:25.637Z,64.80
2018-10-02T21:35:54.494Z,64.30
2018-10-02T21:38:23.261Z,65.60
2018-10-02T21:40:52.096Z,64.90
2018-10-02T21:43:20.899Z,64.20
2018-10-02T21:45:49.744Z,64.80
2018-10-02T21:48:18.524Z,64.80
2018-10-02T21:50:47.205Z,64.50
2018-10-02T21:53:15.991Z,65.50
2018-10-02T21:55:44.753Z,64.70
2018-10-02T21:58:13.529Z,64.10
2018-10-02T22:00:42.249Z,65.50
2018-10-02T22:03:11.037Z,64.20
2018-10-02T22:05:39.771Z,64.20
2018-10-02T22:08:08.755Z,63.50
2018-10-02T22:10:37.671Z,64.40
2018-10-02T22:13:06.667Z,64.30
2018-10-02T22:15:35.444Z,64.70
2018-10-02T22:18:04.388Z,63.90
2018-10-02T22:20:33.134Z,64.70
2018-10-02T22:23:01.922Z,64.10
2018-10-02T22:25:30.672Z,64.10
2018-10-02T22:27:59.474Z,64.20
2018-10-02T22:30:28.228Z,64.20
2018-10-02T22:32:56.964Z,64.40
2018-10-02T22:35:25.716Z,64.50
2018-10-02T22:37:54.480Z,64.50
2018-10-02T22:40:23.264Z,64.70
2018-10-02T22:42:52.004Z,64.60
2018-10-02T22:45:20.749Z,65.30
2018-10-02T22:47:49.476Z,65.30
2018-10-02T22:50:18.219Z,65.60
2018-10-02T22:52:46.952Z,66.70
2018-10-02T22:55:15.698Z,66.60
2018-10-02T22:57:44.435Z,66.50
2018-10-02T23:00:13.200Z,65.50
2018-10-02T23:02:41.956Z,66.50
2018-10-02T23:05:10.708Z,67.10
2018-10-02T23:07:39.440Z,67.20
2018-10-02T23:10:08.178Z,66.40
2018-10-02T23:12:36.916Z,65.60
2018-10-02T23:15:05.663Z,65.10
2018-10-02T23:17:34.447Z,65.20
2018-10-02T23:20:03.184Z,65.10
2018-10-02T23:22:31.976Z,64.90
2018-10-02T23:25:00.700Z,65.30
2018-10-02T23:27:29.445Z,65.50
2018-10-02T23:29:58.181Z,65.00
2018-10-02T23:32:26.917Z,64.80
2018-10-02T23:34:55.660Z,65.20
2018-10-02T23:37:24.390Z,65.10
2018-10-02T23:39:53.145Z,65.50
2018-10-02T23:42:21.988Z,65.00
2018-10-02T23:44:50.740Z,65.70
2018-10-02T23:47:19.472Z,66.50
2018-10-02T23:49:48.224Z,66.20
2018-10-02T23:52:16.958Z,65.50
2018-10-02T23:54:45.693Z,65.50
2018-10-02T23:57:14.425Z,65.80
2018-10-02T23:59:43.173Z,65.60
